createdAt,value
2022-08-11T00:00:09.109Z,2.10
2022-08-11T00:01:22.212Z,2.08
2022-08-11T00:02:54.083Z,2.20
2022-08-11T00:04:01.834Z,2.03
2022-08-11T00:05:17.527Z,2.10
2022-08-11T00:06:31.845Z,2.30
2022-08-11T00:07:35.165Z,2.30
2022-08-11T00:08:38.358Z,2.28
2022-08-11T00:09:40.795Z,1.80
2022-08-11T00:10:42.680Z,2.00
2022-08-11T00:11:51.492Z,2.55
2022-08-11T00:12:59.599Z,2.22
2022-08-11T00:14:02.818Z,2.40
2022-08-11T00:15:05.570Z,2.53
2022-08-11T00:16:17.139Z,1.75
2022-08-11T00:17:19.574Z,2.00
2022-08-11T00:18:21.761Z,2.20
2022-08-11T00:20:11.915Z,2.05
2022-08-11T00:20:57.709Z,1.98
2022-08-11T00:22:05.000Z,2.30
2022-08-11T00:23:14.416Z,2.40
2022-08-11T00:24:21.328Z,2.25
2022-08-11T00:25:23.784Z,2.60
2022-08-11T00:26:27.867Z,2.42
2022-08-11T00:27:34.902Z,2.25
2022-08-11T00:28:37.357Z,2.25
2022-08-11T00:29:51.762Z,2.30
2022-08-11T00:30:55.795Z,2.45
2022-08-11T00:32:01.923Z,2.53
2022-08-11T00:33:04.896Z,2.43
2022-08-11T00:34:12.235Z,2.38
2022-08-11T00:35:51.814Z,2.38
2022-08-11T00:36:45.841Z,2.88
2022-08-11T00:37:50.711Z,2.67
2022-08-11T00:38:53.828Z,2.05
2022-08-11T00:39:56.946Z,2.33
2022-08-11T00:41:06.813Z,1.80
2022-08-11T00:42:35.007Z,2.10
2022-08-11T00:44:08.007Z,2.15
2022-08-11T00:45:22.512Z,2.00
2022-08-11T00:46:27.163Z,2.55
2022-08-11T00:47:31.627Z,2.10
2022-08-11T00:48:56.536Z,2.50
2022-08-11T00:50:41.255Z,2.20
2022-08-11T00:52:05.728Z,1.95
2022-08-11T00:53:31.531Z,2.28
2022-08-11T00:55:17.868Z,2.55
2022-08-11T00:56:41.268Z,2.22
2022-08-11T00:58:10.301Z,2.30
2022-08-11T00:59:36.023Z,2.00
2022-08-11T01:00:55.803Z,2.35
2022-08-11T01:02:19.111Z,2.25
2022-08-11T01:03:46.803Z,2.85
2022-08-11T01:05:12.837Z,2.65
2022-08-11T01:06:51.874Z,2.60
2022-08-11T01:08:11.095Z,2.40
2022-08-11T01:09:25.470Z,2.55
2022-08-11T01:10:54.879Z,2.17
2022-08-11T01:12:21.784Z,2.13
2022-08-11T01:14:10.635Z,2.23
2022-08-11T01:15:15.375Z,2.13
2022-08-11T01:16:35.890Z,2.00
2022-08-11T01:17:49.447Z,2.38
2022-08-11T01:19:02.804Z,2.50
2022-08-11T01:20:59.389Z,2.42
2022-08-11T01:22:31.363Z,1.98
2022-08-11T01:23:51.896Z,2.42
2022-08-11T01:25:05.703Z,2.28
2022-08-11T01:26:44.162Z,2.38
2022-08-11T01:28:12.073Z,2.30
2022-08-11T01:29:29.122Z,2.42
2022-08-11T01:30:56.615Z,2.28
2022-08-11T01:32:13.042Z,2.40
2022-08-11T01:33:43.704Z,2.38
2022-08-11T01:34:48.665Z,2.47
2022-08-11T01:36:08.782Z,2.78
2022-08-11T01:38:05.907Z,2.85
2022-08-11T01:39:32.220Z,2.38
2022-08-11T01:41:10.980Z,2.25
2022-08-11T01:43:05.365Z,1.80
2022-08-11T01:44:39.732Z,2.45
2022-08-11T01:45:53.200Z,2.67
2022-08-11T01:47:30.720Z,2.13
2022-08-11T01:50:09.057Z,2.60
2022-08-11T01:50:54.012Z,2.00
2022-08-11T01:52:08.241Z,2.47
2022-08-11T01:53:18.214Z,2.63
2022-08-11T01:54:52.057Z,3.00
2022-08-11T01:56:16.883Z,2.20
2022-08-11T01:57:44.073Z,2.50
2022-08-11T01:58:54.372Z,2.80
2022-08-11T02:00:08.425Z,2.80
2022-08-11T02:01:37.651Z,2.75
2022-08-11T02:02:58.732Z,2.90
2022-08-11T02:04:19.956Z,2.33
2022-08-11T02:05:32.293Z,2.83
2022-08-11T02:07:00.246Z,2.25
2022-08-11T02:08:02.005Z,2.72
2022-08-11T02:09:49.516Z,2.40
2022-08-11T02:11:13.948Z,2.40
2022-08-11T02:12:18.465Z,2.92
2022-08-11T02:13:52.659Z,2.38
2022-08-11T02:15:22.539Z,2.50
2022-08-11T02:16:53.428Z,2.83
2022-08-11T02:18:10.820Z,2.70
2022-08-11T02:19:45.290Z,2.35
2022-08-11T02:21:20.954Z,3.08
2022-08-11T02:23:10.692Z,2.92
2022-08-11T02:24:24.150Z,2.47
2022-08-11T02:25:37.350Z,2.40
2022-08-11T02:26:44.291Z,2.60
2022-08-11T02:27:54.097Z,2.45
2022-08-11T02:28:55.975Z,3.08
2022-08-11T02:30:11.095Z,2.78
2022-08-11T02:32:24.704Z,2.55
2022-08-11T02:33:34.442Z,2.70
2022-08-11T02:34:44.457Z,2.40
2022-08-11T02:36:20.485Z,3.00
2022-08-11T02:37:27.298Z,2.50
2022-08-11T02:38:49.265Z,2.70
2022-08-11T02:40:02.850Z,2.90
2022-08-11T02:41:58.689Z,2.78
2022-08-11T02:43:11.688Z,2.30
2022-08-11T02:44:21.141Z,2.58
2022-08-11T02:45:35.695Z,2.92
2022-08-11T02:46:51.529Z,2.60
2022-08-11T02:48:30.548Z,2.60
2022-08-11T02:50:06.215Z,2.80
2022-08-11T02:51:33.792Z,2.55
2022-08-11T02:52:59.667Z,3.10
2022-08-11T02:54:25.113Z,2.85
2022-08-11T02:55:50.888Z,3.55
2022-08-11T02:57:29.046Z,2.92
2022-08-11T02:59:32.080Z,2.70
2022-08-11T03:00:50.984Z,2.40
2022-08-11T03:02:08.054Z,2.65
2022-08-11T03:03:31.139Z,3.25
2022-08-11T03:04:49.885Z,2.53
2022-08-11T03:06:09.810Z,3.85
2022-08-11T03:07:31.439Z,2.80
2022-08-11T03:08:59.203Z,3.05
2022-08-11T03:10:23.541Z,3.00
2022-08-11T03:11:57.498Z,3.53
2022-08-11T03:13:40.912Z,3.58
2022-08-11T03:15:09.853Z,3.70
2022-08-11T03:16:39.267Z,3.00
2022-08-11T03:18:04.330Z,3.60
2022-08-11T03:19:13.703Z,3.67
2022-08-11T03:20:33.102Z,3.70
2022-08-11T03:22:08.410Z,2.67
2022-08-11T03:23:44.631Z,3.42
2022-08-11T03:24:46.543Z,3.35
2022-08-11T03:26:27.994Z,3.30
2022-08-11T03:27:44.305Z,3.50
2022-08-11T03:29:02.525Z,3.80
2022-08-11T03:30:13.483Z,3.33
2022-08-11T03:31:40.733Z,3.58
2022-08-11T03:33:26.404Z,3.42
2022-08-11T03:34:31.857Z,3.63
2022-08-11T03:35:41.707Z,3.80
2022-08-11T03:37:37.206Z,3.30
2022-08-11T03:39:00.310Z,3.10
2022-08-11T03:40:12.066Z,3.25
2022-08-11T03:42:01.755Z,3.78
2022-08-11T03:43:29.858Z,3.38
2022-08-11T03:45:08.642Z,3.67
2022-08-11T03:46:56.442Z,3.78
2022-08-11T03:48:00.970Z,4.13
2022-08-11T03:49:39.245Z,4.13
2022-08-11T03:50:55.753Z,3.47
2022-08-11T03:52:23.559Z,3.70
2022-08-11T03:53:29.657Z,4.20
2022-08-11T03:54:52.435Z,3.70
2022-08-11T03:55:59.942Z,3.58
2022-08-11T03:57:40.398Z,3.40
2022-08-11T03:59:20.970Z,3.33
2022-08-11T04:00:39.494Z,4.05
2022-08-11T04:01:56.178Z,3.85
2022-08-11T04:03:15.819Z,3.60
2022-08-11T04:04:55.477Z,3.03
2022-08-11T04:06:17.612Z,3.78
2022-08-11T04:07:55.946Z,3.80
2022-08-11T04:09:34.782Z,3.30
2022-08-11T04:11:10.871Z,3.63
2022-08-11T04:12:36.486Z,4.85
2022-08-11T04:14:28.356Z,4.07
2022-08-11T04:16:20.090Z,3.47
2022-08-11T04:17:38.980Z,3.50
2022-08-11T04:19:02.152Z,4.20
2022-08-11T04:20:22.873Z,3.63
2022-08-11T04:21:27.511Z,4.65
2022-08-11T04:23:06.088Z,3.53
2022-08-11T04:24:39.537Z,3.80
2022-08-11T04:25:58.076Z,4.07
2022-08-11T04:27:36.830Z,4.15
2022-08-11T04:28:58.458Z,3.90
2022-08-11T04:30:30.938Z,4.72
2022-08-11T04:31:48.819Z,3.85
2022-08-11T04:33:03.401Z,3.97
2022-08-11T04:34:32.611Z,3.50
2022-08-11T04:36:02.371Z,4.30
2022-08-11T04:37:30.902Z,3.67
2022-08-11T04:38:49.412Z,4.03
2022-08-11T04:39:57.475Z,4.50
2022-08-11T04:42:09.681Z,5.30
2022-08-11T04:44:05.431Z,3.83
2022-08-11T04:45:29.368Z,4.82
2022-08-11T04:46:49.180Z,4.50
2022-08-11T04:48:28.107Z,4.90
2022-08-11T04:50:13.349Z,4.30
2022-08-11T04:52:06.994Z,4.70
2022-08-11T04:53:46.239Z,4.25
2022-08-11T04:55:18.864Z,4.47
2022-08-11T04:56:42.999Z,4.43
2022-08-11T04:58:10.138Z,4.97
2022-08-11T04:59:49.046Z,4.45
2022-08-11T05:01:13.169Z,4.75
2022-08-11T05:02:44.723Z,4.10
2022-08-11T05:04:31.815Z,4.40
2022-08-11T05:05:56.676Z,4.60
2022-08-11T05:07:36.205Z,4.13
2022-08-11T05:09:25.211Z,4.88
2022-08-11T05:10:48.986Z,4.25
2022-08-11T05:12:06.378Z,4.88
2022-08-11T05:13:29.177Z,4.38
2022-08-11T05:14:56.001Z,4.65
2022-08-11T05:16:20.597Z,4.85
2022-08-11T05:17:49.969Z,4.65
2022-08-11T05:19:12.229Z,5.00
2022-08-11T05:20:36.690Z,4.50
2022-08-11T05:22:01.505Z,4.32
2022-08-11T05:23:27.223Z,4.57
2022-08-11T05:25:06.380Z,4.57
2022-08-11T05:26:46.017Z,4.20
2022-08-11T05:28:34.313Z,4.30
2022-08-11T05:30:03.158Z,4.18
2022-08-11T05:31:32.129Z,4.68
2022-08-11T05:33:01.995Z,4.63
2022-08-11T05:34:36.552Z,4.72
2022-08-11T05:36:02.316Z,4.57
2022-08-11T05:37:25.581Z,5.18
2022-08-11T05:38:51.864Z,4.32
2022-08-11T05:40:18.428Z,4.32
2022-08-11T05:41:43.087Z,4.22
2022-08-11T05:43:12.368Z,4.05
2022-08-11T05:44:39.075Z,4.10
2022-08-11T05:46:03.552Z,4.30
2022-08-11T05:47:25.684Z,4.93
2022-08-11T05:48:52.429Z,4.47
2022-08-11T05:50:13.667Z,4.40
2022-08-11T05:51:36.263Z,4.57
2022-08-11T05:52:58.630Z,4.07
2022-08-11T05:54:28.437Z,4.25
2022-08-11T05:56:02.523Z,4.28
2022-08-11T05:57:06.320Z,4.90
2022-08-11T05:58:10.495Z,4.25
2022-08-11T05:59:18.596Z,4.75
2022-08-11T06:00:20.990Z,4.70
2022-08-11T06:01:28.413Z,4.95
2022-08-11T06:02:31.295Z,4.57
2022-08-11T06:03:58.736Z,5.28
2022-08-11T06:05:01.995Z,4.50
2022-08-11T06:06:09.053Z,4.47
2022-08-11T06:07:12.362Z,4.63
2022-08-11T06:08:15.000Z,5.20
2022-08-11T06:09:25.018Z,4.18
2022-08-11T06:10:33.378Z,4.82
2022-08-11T06:11:44.969Z,4.45
2022-08-11T06:12:53.485Z,4.28
2022-08-11T06:13:57.405Z,3.83
2022-08-11T06:15:05.862Z,4.82
2022-08-11T06:16:08.604Z,4.30
2022-08-11T06:17:10.844Z,4.22
2022-08-11T06:18:13.960Z,4.55
2022-08-11T06:19:17.582Z,4.05
2022-08-11T06:20:20.413Z,4.50
2022-08-11T06:21:22.899Z,4.30
2022-08-11T06:22:25.932Z,4.00
2022-08-11T06:23:32.713Z,4.78
2022-08-11T06:24:37.812Z,4.47
2022-08-11T06:25:39.733Z,4.72
2022-08-11T06:27:10.757Z,4.20
2022-08-11T06:28:10.270Z,4.15
2022-08-11T06:29:18.603Z,4.43
2022-08-11T06:30:35.039Z,4.00
2022-08-11T06:31:37.228Z,3.60
2022-08-11T06:32:43.468Z,4.10
2022-08-11T06:34:01.355Z,3.80
2022-08-11T06:35:31.872Z,3.92
2022-08-11T06:36:52.288Z,3.50
2022-08-11T06:38:16.258Z,4.38
2022-08-11T06:39:28.681Z,3.92
2022-08-11T06:41:22.279Z,3.65
2022-08-11T06:42:32.946Z,4.25
2022-08-11T06:43:55.588Z,3.40
2022-08-11T06:45:40.767Z,4.10
2022-08-11T06:46:56.124Z,4.20
2022-08-11T06:48:00.762Z,4.22
2022-08-11T06:49:03.924Z,4.35
2022-08-11T06:50:25.928Z,5.00
2022-08-11T06:51:32.347Z,4.40
2022-08-11T06:52:37.747Z,3.70
2022-08-11T06:54:03.409Z,4.00
2022-08-11T06:55:57.672Z,3.85
2022-08-11T06:57:31.906Z,3.92
2022-08-11T06:58:57.438Z,3.92
2022-08-11T07:00:20.808Z,3.97
2022-08-11T07:02:09.891Z,4.20
2022-08-11T07:03:16.469Z,3.42
2022-08-11T07:04:40.081Z,3.70
2022-08-11T07:06:00.886Z,3.33
2022-08-11T07:08:34.549Z,2.70
2022-08-11T07:10:02.799Z,3.85
2022-08-11T07:12:08.367Z,4.35
2022-08-11T07:13:44.858Z,3.35
2022-08-11T07:15:11.175Z,3.15
2022-08-11T07:16:26.418Z,2.72
2022-08-11T07:17:31.687Z,3.03
2022-08-11T07:18:55.624Z,3.13
2022-08-11T07:20:19.777Z,3.27
2022-08-11T07:22:03.032Z,3.35
2022-08-11T07:23:28.298Z,3.47
2022-08-11T07:24:59.592Z,3.38
2022-08-11T07:26:24.051Z,3.65
2022-08-11T07:27:49.945Z,3.67
2022-08-11T07:28:55.308Z,3.35
2022-08-11T07:29:58.333Z,4.35
2022-08-11T07:31:13.143Z,3.40
2022-08-11T07:32:25.908Z,2.97
2022-08-11T07:34:07.859Z,2.70
2022-08-11T07:35:17.882Z,3.42
2022-08-11T07:36:23.087Z,2.90
2022-08-11T07:37:33.403Z,3.53
2022-08-11T07:38:47.314Z,2.70
2022-08-11T07:39:50.708Z,4.00
2022-08-11T07:40:52.937Z,3.47
2022-08-11T07:41:58.340Z,3.75
2022-08-11T07:43:01.358Z,3.40
2022-08-11T07:44:10.056Z,3.70
2022-08-11T07:45:36.857Z,2.73
2022-08-11T07:47:02.074Z,3.20
2022-08-11T07:48:24.098Z,2.75
2022-08-11T07:49:46.090Z,3.22
2022-08-11T07:51:07.968Z,3.28
2022-08-11T07:52:28.376Z,2.97
2022-08-11T07:53:31.634Z,2.70
2022-08-11T07:54:35.056Z,3.03
2022-08-11T07:55:50.280Z,3.65
2022-08-11T07:57:09.527Z,3.25
2022-08-11T07:58:45.192Z,3.00
2022-08-11T08:00:07.784Z,2.97
2022-08-11T08:01:39.531Z,2.28
2022-08-11T08:03:01.804Z,2.63
2022-08-11T08:04:24.339Z,2.78
2022-08-11T08:05:44.867Z,2.90
2022-08-11T08:07:05.618Z,2.78
2022-08-11T08:08:27.887Z,2.80
2022-08-11T08:09:53.522Z,2.67
2022-08-11T08:11:15.292Z,3.20
2022-08-11T08:12:38.954Z,3.47
2022-08-11T08:14:02.128Z,2.53
2022-08-11T08:15:25.871Z,2.78
2022-08-11T08:16:48.845Z,2.75
2022-08-11T08:18:20.512Z,3.15
2022-08-11T08:19:16.150Z,3.08
2022-08-11T08:20:22.896Z,3.60
2022-08-11T08:21:25.292Z,3.28
2022-08-11T08:22:39.058Z,3.92
2022-08-11T08:23:53.726Z,3.35
2022-08-11T08:24:58.488Z,2.83
2022-08-11T08:26:26.894Z,3.28
2022-08-11T08:27:29.212Z,2.65
2022-08-11T08:28:34.549Z,2.60
2022-08-11T08:29:56.563Z,2.88
2022-08-11T08:30:58.795Z,2.90
2022-08-11T08:32:02.853Z,3.08
2022-08-11T08:33:05.726Z,2.72
2022-08-11T08:34:08.083Z,2.58
2022-08-11T08:35:12.950Z,2.90
2022-08-11T08:36:16.650Z,2.63
2022-08-11T08:37:45.658Z,2.95
2022-08-11T08:38:49.616Z,2.53
2022-08-11T08:39:52.244Z,3.03
2022-08-11T08:40:56.564Z,2.80
2022-08-11T08:42:01.101Z,2.95
2022-08-11T08:43:08.440Z,2.70
2022-08-11T08:44:37.172Z,3.15
2022-08-11T08:45:38.492Z,2.78
2022-08-11T08:46:46.117Z,2.83
2022-08-11T08:48:12.016Z,3.17
2022-08-11T08:49:18.297Z,2.80
2022-08-11T08:50:27.435Z,2.40
2022-08-11T08:51:57.033Z,2.63
2022-08-11T08:53:01.688Z,2.38
2022-08-11T08:54:14.581Z,2.75
2022-08-11T08:55:20.878Z,2.47
2022-08-11T08:56:28.206Z,2.92
2022-08-11T08:57:38.931Z,2.60
2022-08-11T08:58:45.465Z,3.17
2022-08-11T08:59:51.508Z,2.40
2022-08-11T09:00:56.650Z,2.55
2022-08-11T09:02:02.810Z,2.47
2022-08-11T09:03:22.960Z,3.05
2022-08-11T09:04:28.596Z,2.83
2022-08-11T09:05:30.692Z,3.10
2022-08-11T09:06:34.084Z,2.80
2022-08-11T09:07:39.742Z,3.17
2022-08-11T09:08:43.778Z,2.50
2022-08-11T09:09:49.029Z,2.60
2022-08-11T09:11:13.968Z,1.90
2022-08-11T09:12:36.276Z,2.80
2022-08-11T09:13:44.498Z,2.67
2022-08-11T09:15:03.670Z,2.35
2022-08-11T09:16:06.886Z,2.33
2022-08-11T09:17:08.986Z,2.78
2022-08-11T09:18:12.120Z,2.50
2022-08-11T09:19:17.593Z,2.95
2022-08-11T09:20:21.542Z,2.50
2022-08-11T09:21:49.198Z,2.55
2022-08-11T09:24:55.460Z,2.33
2022-08-11T09:26:19.265Z,2.60
2022-08-11T09:27:22.785Z,2.30
2022-08-11T09:28:25.287Z,2.55
2022-08-11T09:29:31.745Z,2.40
2022-08-11T09:30:33.964Z,2.65
2022-08-11T09:31:40.029Z,2.63
2022-08-11T09:32:43.091Z,3.08
2022-08-11T09:33:45.879Z,2.90
2022-08-11T09:34:52.522Z,2.63
2022-08-11T09:35:57.359Z,2.47
2022-08-11T09:37:28.317Z,2.45
2022-08-11T09:39:00.514Z,2.65
2022-08-11T09:40:22.522Z,2.58
2022-08-11T09:41:29.396Z,2.38
2022-08-11T09:43:10.614Z,2.50
2022-08-11T09:44:36.546Z,2.65
2022-08-11T09:45:40.739Z,2.72
2022-08-11T09:46:43.255Z,2.50
2022-08-11T09:47:46.368Z,2.28
2022-08-11T09:48:48.705Z,3.00
2022-08-11T09:49:53.712Z,2.90
2022-08-11T09:51:00.483Z,3.55
2022-08-11T09:52:09.437Z,2.83
2022-08-11T09:53:37.776Z,3.55
2022-08-11T09:54:35.673Z,3.60
2022-08-11T09:55:38.707Z,3.28
2022-08-11T09:57:04.670Z,2.83
2022-08-11T09:58:35.186Z,3.92
2022-08-11T09:59:40.040Z,2.65
2022-08-11T10:00:43.518Z,2.97
2022-08-11T10:01:49.371Z,2.83
2022-08-11T10:02:54.649Z,2.70
2022-08-11T10:04:00.537Z,2.67
2022-08-11T10:05:22.045Z,2.75
2022-08-11T10:06:43.266Z,2.67
2022-08-11T10:07:50.405Z,2.65
2022-08-11T10:08:54.622Z,2.78
2022-08-11T10:10:01.132Z,2.58
2022-08-11T10:11:03.631Z,3.33
2022-08-11T10:12:11.606Z,2.97
2022-08-11T10:14:31.871Z,2.72
2022-08-11T10:15:07.786Z,2.53
2022-08-11T10:16:15.257Z,2.90
2022-08-11T10:17:21.704Z,2.42
2022-08-11T10:18:43.137Z,2.00
2022-08-11T10:20:03.831Z,2.90
2022-08-11T10:21:28.308Z,2.53
2022-08-11T10:22:49.786Z,2.30
2022-08-11T10:24:12.049Z,2.40
2022-08-11T10:25:33.976Z,3.20
2022-08-11T10:26:51.109Z,2.40
2022-08-11T10:28:32.745Z,2.55
2022-08-11T10:29:45.163Z,2.35
2022-08-11T10:31:13.645Z,2.40
2022-08-11T10:32:46.403Z,2.38
2022-08-11T10:34:03.990Z,3.05
2022-08-11T10:35:09.163Z,3.00
2022-08-11T10:36:16.266Z,2.60
2022-08-11T10:37:22.870Z,2.28
2022-08-11T10:38:26.787Z,2.90
2022-08-11T10:39:29.825Z,2.70
2022-08-11T10:40:32.732Z,3.20
2022-08-11T10:42:06.930Z,2.55
2022-08-11T10:44:00.413Z,3.13
2022-08-11T10:44:41.351Z,2.58
2022-08-11T10:46:04.739Z,2.67
2022-08-11T10:47:26.420Z,2.70
2022-08-11T10:48:30.066Z,2.92
2022-08-11T10:49:32.578Z,2.90
2022-08-11T10:50:53.467Z,2.53
2022-08-11T10:52:15.590Z,2.63
2022-08-11T10:53:38.871Z,3.13
2022-08-11T10:55:00.867Z,2.78
2022-08-11T10:56:22.549Z,2.60
2022-08-11T10:57:43.470Z,2.70
2022-08-11T10:59:10.998Z,3.40
2022-08-11T11:00:16.332Z,2.83
2022-08-11T11:01:22.772Z,2.70
2022-08-11T11:02:27.242Z,2.30
2022-08-11T11:03:31.003Z,3.60
2022-08-11T11:04:56.992Z,2.55
2022-08-11T11:06:29.169Z,2.70
2022-08-11T11:07:43.947Z,3.60
2022-08-11T11:08:57.535Z,2.78
2022-08-11T11:10:06.663Z,2.50
2022-08-11T11:11:10.017Z,3.35
2022-08-11T11:13:05.653Z,3.40
2022-08-11T11:14:27.195Z,2.90
2022-08-11T11:15:50.831Z,3.10
2022-08-11T11:17:25.015Z,3.60
2022-08-11T11:18:36.088Z,2.70
2022-08-11T11:19:39.841Z,3.17
2022-08-11T11:20:57.914Z,3.22
2022-08-11T11:22:20.928Z,3.65
2022-08-11T11:23:40.394Z,3.00
2022-08-11T11:25:20.964Z,2.63
2022-08-11T11:26:38.635Z,2.50
2022-08-11T11:27:49.397Z,3.20
2022-08-11T11:29:25.179Z,2.42
2022-08-11T11:30:37.583Z,3.00
2022-08-11T11:31:58.535Z,2.67
2022-08-11T11:33:11.170Z,3.15
2022-08-11T11:34:27.538Z,2.70
2022-08-11T11:35:57.753Z,3.05
2022-08-11T11:37:01.324Z,3.30
2022-08-11T11:38:11.819Z,3.00
2022-08-11T11:39:24.071Z,2.70
2022-08-11T11:40:31.469Z,2.92
2022-08-11T11:41:34.409Z,2.70
2022-08-11T11:42:38.521Z,2.60
2022-08-11T11:43:42.208Z,2.50
2022-08-11T11:44:46.764Z,2.40
2022-08-11T11:45:48.947Z,2.20
2022-08-11T11:46:52.310Z,2.72
2022-08-11T11:47:58.517Z,3.05
2022-08-11T11:49:07.105Z,2.50
2022-08-11T11:50:31.693Z,2.60
2022-08-11T11:51:34.965Z,2.65
2022-08-11T11:52:39.556Z,2.42
2022-08-11T11:53:45.500Z,2.73
2022-08-11T11:54:50.550Z,2.67
2022-08-11T11:55:52.831Z,2.05
2022-08-11T11:56:56.737Z,2.45
2022-08-11T11:58:19.934Z,2.90
2022-08-11T11:59:46.405Z,2.03
2022-08-11T12:01:08.010Z,2.80
2022-08-11T12:02:12.681Z,2.25
2022-08-11T12:03:15.499Z,2.60
2022-08-11T12:04:20.301Z,2.10
2022-08-11T12:05:22.789Z,2.10
2022-08-11T12:06:27.632Z,1.90
2022-08-11T12:08:10.349Z,2.90
2022-08-11T12:09:18.489Z,2.65
2022-08-11T12:10:21.014Z,2.72
2022-08-11T12:11:43.482Z,2.10
2022-08-11T12:13:05.683Z,2.70
2022-08-11T12:14:10.661Z,2.03
2022-08-11T12:15:13.533Z,2.35
2022-08-11T12:16:34.114Z,2.22
2022-08-11T12:17:38.886Z,2.03
2022-08-11T12:18:43.759Z,2.40
2022-08-11T12:19:48.538Z,2.40
2022-08-11T12:20:50.848Z,2.45
2022-08-11T12:22:14.980Z,2.40
2022-08-11T12:23:35.767Z,2.20
2022-08-11T12:24:57.393Z,2.60
2022-08-11T12:26:27.563Z,2.25
2022-08-11T12:27:30.911Z,2.05
2022-08-11T12:28:34.604Z,1.90
2022-08-11T12:29:41.267Z,2.40
2022-08-11T12:30:49.542Z,2.17
2022-08-11T12:31:58.869Z,2.13
2022-08-11T12:33:03.908Z,2.83
2022-08-11T12:34:11.951Z,2.72
2022-08-11T12:35:16.042Z,2.42
2022-08-11T12:36:20.340Z,2.40
2022-08-11T12:37:30.230Z,2.60
2022-08-11T12:38:35.146Z,2.35
2022-08-11T12:40:17.029Z,2.10
2022-08-11T12:41:48.537Z,1.93
2022-08-11T12:43:22.008Z,2.35
2022-08-11T12:44:47.191Z,2.00
2022-08-11T12:45:58.491Z,2.28
2022-08-11T12:47:02.180Z,2.72
2022-08-11T12:49:00.898Z,2.45
2022-08-11T12:50:23.077Z,2.60
2022-08-11T12:52:12.225Z,2.25
2022-08-11T12:53:12.056Z,2.30
2022-08-11T12:54:28.254Z,2.17
2022-08-11T12:56:03.717Z,2.40
2022-08-11T12:57:59.910Z,1.90
2022-08-11T12:59:21.721Z,2.00
2022-08-11T13:00:44.583Z,2.28
2022-08-11T13:02:05.030Z,2.47
2022-08-11T13:03:29.005Z,2.15
2022-08-11T13:04:50.148Z,1.92
2022-08-11T13:05:56.370Z,2.03
2022-08-11T13:06:58.335Z,2.17
2022-08-11T13:08:02.034Z,2.33
2022-08-11T13:09:05.051Z,2.40
2022-08-11T13:10:16.817Z,2.10
2022-08-11T13:11:56.327Z,2.33
2022-08-11T13:12:59.620Z,2.33
2022-08-11T13:14:03.035Z,2.33
2022-08-11T13:15:05.575Z,2.38
2022-08-11T13:16:07.673Z,2.45
2022-08-11T13:17:43.945Z,2.30
2022-08-11T13:18:45.110Z,2.17
2022-08-11T13:19:49.775Z,2.17
2022-08-11T13:20:57.169Z,1.83
2022-08-11T13:22:00.749Z,2.45
2022-08-11T13:23:03.585Z,1.95
2022-08-11T13:24:06.089Z,2.33
2022-08-11T13:25:09.160Z,1.92
2022-08-11T13:26:19.958Z,1.95
2022-08-11T13:27:25.175Z,1.90
2022-08-11T13:28:27.959Z,1.80
2022-08-11T13:29:30.497Z,2.00
2022-08-11T13:30:56.122Z,1.95
2022-08-11T13:32:01.973Z,2.20
2022-08-11T13:33:07.612Z,2.40
2022-08-11T13:34:10.664Z,2.65
2022-08-11T13:35:17.141Z,2.28
2022-08-11T13:36:27.245Z,2.30
2022-08-11T13:38:18.760Z,2.13
2022-08-11T13:38:51.952Z,2.40
2022-08-11T13:39:53.976Z,2.30
2022-08-11T13:40:56.644Z,2.10
2022-08-11T13:42:00.397Z,2.30
2022-08-11T13:43:02.754Z,2.40
2022-08-11T13:44:06.335Z,2.10
2022-08-11T13:45:09.379Z,2.17
2022-08-11T13:46:24.677Z,2.78
2022-08-11T13:47:30.766Z,2.60
2022-08-11T13:48:32.671Z,2.55
2022-08-11T13:49:40.736Z,2.38
2022-08-11T13:51:02.497Z,2.60
2022-08-11T13:52:06.633Z,2.38
2022-08-11T13:53:09.672Z,2.03
2022-08-11T13:54:20.389Z,2.40
2022-08-11T13:55:45.573Z,2.30
2022-08-11T13:56:48.024Z,2.58
2022-08-11T13:58:09.072Z,2.30
2022-08-11T13:59:20.359Z,2.03
2022-08-11T14:00:31.292Z,2.17
2022-08-11T14:02:22.364Z,1.92
2022-08-11T14:03:00.011Z,1.92
2022-08-11T14:04:30.910Z,2.28
2022-08-11T14:05:47.740Z,2.17
2022-08-11T14:06:54.047Z,2.60
2022-08-11T14:08:01.097Z,2.00
2022-08-11T14:09:08.460Z,2.42
2022-08-11T14:10:13.760Z,2.05
2022-08-11T14:12:22.096Z,2.28
2022-08-11T14:13:20.556Z,1.83
2022-08-11T14:14:25.769Z,2.20
2022-08-11T14:15:35.617Z,2.22
2022-08-11T14:16:42.895Z,2.38
2022-08-11T14:17:48.816Z,1.95
2022-08-11T14:18:54.368Z,2.00
2022-08-11T14:19:57.458Z,1.90
2022-08-11T14:21:21.099Z,2.60
2022-08-11T14:22:23.162Z,2.33
2022-08-11T14:23:32.510Z,2.20
2022-08-11T14:24:43.424Z,2.03
2022-08-11T14:26:05.432Z,2.00
2022-08-11T14:28:30.403Z,2.50
2022-08-11T14:28:41.500Z,2.40
2022-08-11T14:29:48.711Z,1.95
2022-08-11T14:31:01.263Z,5.20
2022-08-11T14:32:06.053Z,2.75
2022-08-11T14:33:16.780Z,2.53
2022-08-11T14:34:22.638Z,2.10
2022-08-11T14:35:27.632Z,2.50
2022-08-11T14:36:35.858Z,1.70
2022-08-11T14:37:39.306Z,2.10
2022-08-11T14:38:42.386Z,2.10
2022-08-11T14:39:46.094Z,1.98
2022-08-11T14:41:07.103Z,1.77
2022-08-11T14:42:29.120Z,2.30
2022-08-11T14:44:13.339Z,2.05
2022-08-11T14:45:54.417Z,1.77
2022-08-11T14:47:23.353Z,1.85
2022-08-11T14:48:27.238Z,1.75
2022-08-11T14:49:29.809Z,1.80
2022-08-11T14:50:33.792Z,1.60
2022-08-11T14:51:36.248Z,2.17
2022-08-11T14:52:39.160Z,1.80
2022-08-11T14:53:41.304Z,2.15
2022-08-11T14:55:19.844Z,2.23
2022-08-11T14:56:37.232Z,1.75
2022-08-11T14:57:54.731Z,2.10
2022-08-11T14:58:59.851Z,2.70
2022-08-11T15:00:04.701Z,2.22
2022-08-11T15:01:27.071Z,1.85
2022-08-11T15:02:48.552Z,1.50
2022-08-11T15:04:34.473Z,2.15
2022-08-11T15:05:15.106Z,2.30
2022-08-11T15:06:17.401Z,1.50
2022-08-11T15:07:29.453Z,2.13
2022-08-11T15:08:52.744Z,1.80
2022-08-11T15:10:13.200Z,2.45
2022-08-11T15:11:36.533Z,1.92
2022-08-11T15:12:42.004Z,2.05
2022-08-11T15:13:44.033Z,1.80
2022-08-11T15:15:05.116Z,1.95
2022-08-11T15:16:25.836Z,2.20
2022-08-11T15:17:42.717Z,1.67
2022-08-11T15:18:45.917Z,2.05
2022-08-11T15:20:08.159Z,2.10
2022-08-11T15:21:45.732Z,1.83
2022-08-11T15:23:06.165Z,2.67
2022-08-11T15:24:19.912Z,2.00
2022-08-11T15:25:22.265Z,1.80
2022-08-11T15:26:53.902Z,2.13
2022-08-11T15:28:15.519Z,2.08
2022-08-11T15:29:40.680Z,2.13
2022-08-11T15:31:02.681Z,2.92
2022-08-11T15:32:20.502Z,2.08
2022-08-11T15:33:43.524Z,3.23
2022-08-11T15:35:09.583Z,1.88
2022-08-11T15:36:33.166Z,2.25
2022-08-11T15:37:36.787Z,1.83
2022-08-11T15:39:20.788Z,1.73
2022-08-11T15:40:49.417Z,2.60
2022-08-11T15:42:19.495Z,1.50
2022-08-11T15:43:43.851Z,2.13
2022-08-11T15:45:09.826Z,2.10
2022-08-11T15:46:20.266Z,1.70
2022-08-11T15:47:29.073Z,1.83
2022-08-11T15:48:32.731Z,1.83
2022-08-11T15:50:12.617Z,1.60
2022-08-11T15:51:11.449Z,2.10
2022-08-11T15:52:21.294Z,2.13
2022-08-11T15:53:31.278Z,1.80
2022-08-11T15:54:35.429Z,1.63
2022-08-11T15:55:39.285Z,1.88
2022-08-11T15:56:44.746Z,2.05
2022-08-11T15:58:08.067Z,2.25
2022-08-11T15:59:43.196Z,2.47
2022-08-11T16:01:08.862Z,1.92
2022-08-11T16:02:35.395Z,2.88
2022-08-11T16:04:09.085Z,2.50
2022-08-11T16:05:14.106Z,2.50
2022-08-11T16:06:49.268Z,2.03
2022-08-11T16:07:52.905Z,1.92
2022-08-11T16:09:04.736Z,1.90
2022-08-11T16:10:24.905Z,1.65
2022-08-11T16:11:27.469Z,2.08
2022-08-11T16:12:37.343Z,2.00
2022-08-11T16:13:40.922Z,1.70
2022-08-11T16:15:08.176Z,1.88
2022-08-11T16:16:15.126Z,1.90
2022-08-11T16:17:18.578Z,1.80
2022-08-11T16:18:25.025Z,1.60
2022-08-11T16:19:32.520Z,2.13
2022-08-11T16:20:35.731Z,1.70
2022-08-11T16:21:43.497Z,2.22
2022-08-11T16:23:01.325Z,1.90
2022-08-11T16:24:07.583Z,1.97
2022-08-11T16:26:38.063Z,1.50
2022-08-11T16:27:07.522Z,1.80
2022-08-11T16:28:06.094Z,2.40
2022-08-11T16:29:10.425Z,2.03
2022-08-11T16:30:14.821Z,1.58
2022-08-11T16:31:18.075Z,1.80
2022-08-11T16:32:23.405Z,1.70
2022-08-11T16:33:48.954Z,2.20
2022-08-11T16:35:14.695Z,1.73
2022-08-11T16:36:37.253Z,2.10
2022-08-11T16:37:59.148Z,2.15
2022-08-11T16:39:03.078Z,2.00
2022-08-11T16:40:06.257Z,1.98
2022-08-11T16:41:13.783Z,1.90
2022-08-11T16:43:06.096Z,1.95
2022-08-11T16:44:15.071Z,2.40
2022-08-11T16:45:35.931Z,2.00
2022-08-11T16:46:56.976Z,2.08
2022-08-11T16:48:32.611Z,1.80
2022-08-11T16:49:31.501Z,2.20
2022-08-11T16:50:38.215Z,2.38
2022-08-11T16:51:40.390Z,2.13
2022-08-11T16:52:42.568Z,2.20
2022-08-11T16:54:03.555Z,2.00
2022-08-11T16:55:09.708Z,2.13
2022-08-11T16:56:16.881Z,2.17
2022-08-11T16:57:45.237Z,2.15
2022-08-11T16:59:12.347Z,1.85
2022-08-11T17:00:17.634Z,1.73
2022-08-11T17:01:23.031Z,2.37
2022-08-11T17:02:47.278Z,2.35
2022-08-11T17:04:16.677Z,2.10
2022-08-11T17:05:54.727Z,2.00
2022-08-11T17:07:41.974Z,2.28
2022-08-11T17:09:09.146Z,1.90
2022-08-11T17:10:51.615Z,2.15
2022-08-11T17:12:16.351Z,2.65
2022-08-11T17:13:23.963Z,2.10
2022-08-11T17:14:35.489Z,1.73